createdAt,value
2018-03-30T00:00:43.612Z,0
2018-03-30T00:01:43.737Z,0
2018-03-30T00:02:43.708Z,0
2018-03-30T00:03:43.671Z,0
2018-03-30T00:04:43.640Z,0
2018-03-30T00:05:43.616Z,0
2018-03-30T00:06:43.594Z,0
2018-03-30T00:07:43.301Z,0
2018-03-30T00:08:43.022Z,0
2018-03-30T00:09:43.491Z,0
2018-03-30T00:10:43.463Z,0
2018-03-30T00:11:43.430Z,0
2018-03-30T00:12:43.403Z,0
2018-03-30T00:13:43.122Z,0
2018-03-30T00:14:43.346Z,0
2018-03-30T00:15:43.320Z,0
2018-03-30T00:16:43.041Z,0
2018-03-30T00:17:43.001Z,0
2018-03-30T00:18:42.985Z,0
2018-03-30T00:19:43.190Z,0
2018-03-30T00:20:43.166Z,0
2018-03-30T00:21:43.132Z,0
2018-03-30T00:22:42.858Z,0
2018-03-30T00:23:42.581Z,0
2018-03-30T00:24:43.047Z,0
2018-03-30T00:25:43.016Z,0
2018-03-30T00:26:42.978Z,0
2018-03-30T00:27:42.958Z,0
2018-03-30T00:28:42.927Z,0
2018-03-30T00:29:42.895Z,0
2018-03-30T00:30:42.860Z,0
2018-03-30T00:31:42.659Z,0
2018-03-30T00:32:42.555Z,0
2018-03-30T00:33:42.532Z,0
2018-03-30T00:34:42.248Z,0
2018-03-30T00:35:42.463Z,0
2018-03-30T00:36:42.688Z,0
2018-03-30T00:37:42.160Z,0
2018-03-30T00:38:42.625Z,0
2018-03-30T00:39:42.747Z,0
2018-03-30T00:40:42.564Z,0
2018-03-30T00:41:42.037Z,0
2018-03-30T00:42:42.506Z,0
2018-03-30T00:43:42.228Z,0
2018-03-30T00:44:42.445Z,0
2018-03-30T00:45:42.169Z,0
2018-03-30T00:46:42.397Z,0
2018-03-30T00:47:42.107Z,0
2018-03-30T00:48:42.334Z,0
2018-03-30T00:49:42.295Z,0
2018-03-30T00:50:42.275Z,0
2018-03-30T00:51:42.248Z,0
2018-03-30T00:52:41.964Z,0
2018-03-30T00:53:42.185Z,0
2018-03-30T00:54:42.156Z,0
2018-03-30T00:55:42.124Z,0
2018-03-30T00:56:41.850Z,0
2018-03-30T00:57:41.827Z,0
2018-03-30T00:58:42.027Z,0
2018-03-30T00:59:41.998Z,0
2018-03-30T01:00:41.970Z,0
2018-03-30T01:01:41.697Z,0
2018-03-30T01:02:41.665Z,0
2018-03-30T01:03:41.637Z,0
2018-03-30T01:04:41.607Z,0
2018-03-30T01:05:41.578Z,0
2018-03-30T01:06:41.308Z,0
2018-03-30T01:07:41.770Z,0
2018-03-30T01:08:41.484Z,0
2018-03-30T01:09:41.713Z,0
2018-03-30T01:10:41.432Z,0
2018-03-30T01:11:41.411Z,0
2018-03-30T01:12:41.627Z,0
2018-03-30T01:13:41.608Z,0
2018-03-30T01:14:41.563Z,0
2018-03-30T01:15:41.284Z,0
2018-03-30T01:16:41.263Z,0
2018-03-30T01:17:41.477Z,0
2018-03-30T01:18:41.452Z,0
2018-03-30T01:19:41.425Z,0
2018-03-30T01:20:41.142Z,0
2018-03-30T01:21:40.857Z,0
2018-03-30T01:22:41.325Z,0
2018-03-30T01:23:41.129Z,0
2018-03-30T01:24:41.268Z,0
2018-03-30T01:25:41.242Z,0
2018-03-30T01:26:40.962Z,0
2018-03-30T01:27:41.179Z,0
2018-03-30T01:28:41.152Z,0
2018-03-30T01:29:41.123Z,0
2018-03-30T01:30:41.102Z,0
2018-03-30T01:31:41.070Z,0
2018-03-30T01:32:40.785Z,0
2018-03-30T01:33:41.013Z,0
2018-03-30T01:34:40.981Z,0
2018-03-30T01:35:40.696Z,0
2018-03-30T01:36:40.933Z,0
2018-03-30T01:37:40.645Z,0
2018-03-30T01:38:40.863Z,0
2018-03-30T01:39:40.831Z,0
2018-03-30T01:40:40.307Z,0
2018-03-30T01:41:40.780Z,0
2018-03-30T01:42:40.746Z,0
2018-03-30T01:43:40.735Z,0
2018-03-30T01:44:40.691Z,0
2018-03-30T01:45:40.661Z,0
2018-03-30T01:46:40.641Z,0
2018-03-30T01:47:40.602Z,0
2018-03-30T01:48:40.577Z,0
2018-03-30T01:49:40.544Z,0
2018-03-30T01:50:40.313Z,0
2018-03-30T01:51:40.490Z,0
2018-03-30T01:52:39.961Z,0
2018-03-30T01:53:40.183Z,0
2018-03-30T01:54:40.158Z,0
2018-03-30T01:55:40.118Z,0
2018-03-30T01:56:40.102Z,0
2018-03-30T01:57:40.317Z,0
2018-03-30T01:58:40.040Z,0
2018-03-30T01:59:40.256Z,0
2018-03-30T02:00:39.741Z,0
2018-03-30T02:01:39.957Z,0
2018-03-30T02:02:40.172Z,0
2018-03-30T02:03:40.143Z,0
2018-03-30T02:04:40.119Z,0
2018-03-30T02:05:40.103Z,0
2018-03-30T02:06:39.808Z,0
2018-03-30T02:07:39.784Z,0
2018-03-30T02:08:40.007Z,0
2018-03-30T02:09:39.971Z,0
2018-03-30T02:10:39.946Z,0
2018-03-30T02:11:39.912Z,0
2018-03-30T02:12:39.643Z,0
2018-03-30T02:13:39.869Z,0
2018-03-30T02:14:39.834Z,0
2018-03-30T02:15:39.800Z,0
2018-03-30T02:16:39.776Z,0
2018-03-30T02:17:39.745Z,0
2018-03-30T02:18:39.714Z,0
2018-03-30T02:19:39.694Z,0
2018-03-30T02:20:39.660Z,0
2018-03-30T02:21:39.629Z,0
2018-03-30T02:22:39.606Z,0
2018-03-30T02:23:39.323Z,0
2018-03-30T02:24:39.330Z,0
2018-03-30T02:25:39.024Z,0
2018-03-30T02:26:39.485Z,0
2018-03-30T02:27:39.467Z,0
2018-03-30T02:28:39.181Z,0
2018-03-30T02:29:39.402Z,0
2018-03-30T02:30:39.376Z,0
2018-03-30T02:31:39.357Z,0
2018-03-30T02:32:39.065Z,0
2018-03-30T02:33:39.053Z,0
2018-03-30T02:34:39.262Z,0
2018-03-30T02:35:39.000Z,0
2018-03-30T02:36:38.960Z,0
2018-03-30T02:37:39.182Z,0
2018-03-30T02:38:39.164Z,0
2018-03-30T02:39:38.636Z,0
2018-03-30T02:40:38.838Z,0
2018-03-30T02:41:38.835Z,0
2018-03-30T02:42:38.792Z,0
2018-03-30T02:43:39.007Z,0
2018-03-30T02:44:38.731Z,0
2018-03-30T02:45:38.727Z,0
2018-03-30T02:46:38.926Z,0
2018-03-30T02:47:38.898Z,0
2018-03-30T02:48:38.882Z,0
2018-03-30T02:49:38.852Z,0
2018-03-30T02:50:38.811Z,0
2018-03-30T02:51:38.773Z,0
2018-03-30T02:52:38.785Z,0
2018-03-30T02:53:38.728Z,0
2018-03-30T02:54:38.446Z,0
2018-03-30T02:55:38.665Z,0
2018-03-30T02:56:38.386Z,0
2018-03-30T02:57:38.938Z,0
2018-03-30T02:58:38.348Z,0
2018-03-30T02:59:38.555Z,0
2018-03-30T03:00:38.533Z,0
2018-03-30T03:01:38.245Z,0
2018-03-30T03:02:38.489Z,0
2018-03-30T03:03:38.198Z,0
2018-03-30T03:04:38.429Z,0
2018-03-30T03:05:38.391Z,0
2018-03-30T03:06:38.370Z,0
2018-03-30T03:07:38.341Z,0
2018-03-30T03:08:38.317Z,0
2018-03-30T03:09:38.031Z,0
2018-03-30T03:10:37.744Z,0
2018-03-30T03:11:38.210Z,0
2018-03-30T03:12:38.185Z,0
2018-03-30T03:13:37.903Z,0
2018-03-30T03:14:37.876Z,0
2018-03-30T03:15:37.849Z,0
2018-03-30T03:16:37.823Z,0
2018-03-30T03:17:38.137Z,0
2018-03-30T03:18:37.766Z,0
2018-03-30T03:19:37.990Z,0
2018-03-30T03:20:37.960Z,0
2018-03-30T03:21:37.680Z,0
2018-03-30T03:22:37.903Z,0
2018-03-30T03:23:37.630Z,0
2018-03-30T03:24:37.604Z,0
2018-03-30T03:25:37.821Z,0
2018-03-30T03:26:37.791Z,0
2018-03-30T03:27:37.773Z,0
2018-03-30T03:28:37.734Z,0
2018-03-30T03:29:37.462Z,0
2018-03-30T03:30:37.688Z,0
2018-03-30T03:31:37.659Z,0
2018-03-30T03:32:37.631Z,0
2018-03-30T03:33:37.618Z,0
2018-03-30T03:34:37.340Z,0
2018-03-30T03:35:37.043Z,0
2018-03-30T03:36:37.517Z,0
2018-03-30T03:37:37.480Z,0
2018-03-30T03:38:37.456Z,0
2018-03-30T03:39:37.434Z,0
2018-03-30T03:40:37.164Z,0
2018-03-30T03:41:37.123Z,0
2018-03-30T03:42:37.346Z,0
2018-03-30T03:43:37.334Z,0
2018-03-30T03:44:37.286Z,0
2018-03-30T03:45:37.262Z,0
2018-03-30T03:46:37.229Z,0
2018-03-30T03:47:37.208Z,0
2018-03-30T03:48:37.185Z,0
2018-03-30T03:49:37.142Z,0
2018-03-30T03:50:36.871Z,0
2018-03-30T03:51:37.098Z,0
2018-03-30T03:52:37.067Z,0
2018-03-30T03:53:37.038Z,0
2018-03-30T03:54:36.762Z,0
2018-03-30T03:55:36.980Z,0
2018-03-30T03:56:36.495Z,0
2018-03-30T03:57:36.938Z,0
2018-03-30T03:58:36.656Z,0
2018-03-30T03:59:36.618Z,0
2018-03-30T04:00:36.591Z,0
2018-03-30T04:01:36.313Z,0
2018-03-30T04:02:36.782Z,0
2018-03-30T04:03:36.752Z,0
2018-03-30T04:04:36.728Z,0
2018-03-30T04:05:36.701Z,0
2018-03-30T04:06:36.679Z,0
2018-03-30T04:07:36.402Z,0
2018-03-30T04:08:36.611Z,0
2018-03-30T04:09:36.601Z,0
2018-03-30T04:10:36.563Z,0
2018-03-30T04:11:36.535Z,0
2018-03-30T04:12:36.266Z,0
2018-03-30T04:13:36.229Z,0
2018-03-30T04:14:36.448Z,0
2018-03-30T04:15:36.433Z,0
2018-03-30T04:16:36.391Z,0
2018-03-30T04:17:35.868Z,0
2018-03-30T04:18:35.842Z,0
2018-03-30T04:19:35.810Z,0
2018-03-30T04:20:35.539Z,0
2018-03-30T04:21:36.012Z,0
2018-03-30T04:22:35.973Z,0
2018-03-30T04:23:36.195Z,0
2018-03-30T04:24:36.169Z,0
2018-03-30T04:25:36.146Z,0
2018-03-30T04:26:36.117Z,0
2018-03-30T04:27:36.097Z,0
2018-03-30T04:28:35.804Z,0
2018-03-30T04:29:36.036Z,0
2018-03-30T04:30:36.009Z,0
2018-03-30T04:31:35.974Z,0
2018-03-30T04:32:35.697Z,0
2018-03-30T04:33:35.915Z,0
2018-03-30T04:34:35.893Z,0
2018-03-30T04:35:35.869Z,0
2018-03-30T04:36:35.841Z,0
2018-03-30T04:37:35.808Z,0
2018-03-30T04:38:35.530Z,4
2018-03-30T04:39:35.252Z,4
2018-03-30T04:40:35.584Z,0
2018-03-30T04:41:35.196Z,4
2018-03-30T04:42:35.667Z,4
2018-03-30T04:43:35.638Z,4
2018-03-30T04:44:35.611Z,8
2018-03-30T04:45:35.332Z,8
2018-03-30T04:46:35.056Z,8
2018-03-30T04:47:35.276Z,8
2018-03-30T04:48:35.249Z,12
2018-03-30T04:49:35.219Z,16
2018-03-30T04:50:35.190Z,16
2018-03-30T04:51:35.413Z,20
2018-03-30T04:52:35.380Z,24
2018-03-30T04:53:35.110Z,28
2018-03-30T04:54:35.328Z,32
2018-03-30T04:55:35.306Z,36
2018-03-30T04:56:35.276Z,40
2018-03-30T04:57:35.245Z,44
2018-03-30T04:58:34.992Z,52
2018-03-30T04:59:35.180Z,60
2018-03-30T05:00:35.155Z,72
2018-03-30T05:01:34.634Z,84
2018-03-30T05:02:35.112Z,96
2018-03-30T05:03:34.829Z,112
2018-03-30T05:04:34.548Z,124
2018-03-30T05:05:35.030Z,144
2018-03-30T05:06:34.996Z,164
2018-03-30T05:07:34.960Z,184
2018-03-30T05:08:34.691Z,200
2018-03-30T05:09:34.907Z,228
2018-03-30T05:10:34.878Z,252
2018-03-30T05:11:34.356Z,276
2018-03-30T05:12:34.571Z,300
2018-03-30T05:13:34.550Z,332
2018-03-30T05:14:34.761Z,364
2018-03-30T05:15:34.487Z,396
2018-03-30T05:16:34.277Z,440
2018-03-30T05:17:34.183Z,484
2018-03-30T05:18:34.401Z,532
2018-03-30T05:19:34.616Z,580
2018-03-30T05:20:34.344Z,636
2018-03-30T05:21:34.312Z,692
2018-03-30T05:22:34.288Z,752
2018-03-30T05:23:34.261Z,812
2018-03-30T05:24:34.237Z,864
2018-03-30T05:25:34.448Z,912
2018-03-30T05:26:34.440Z,956
2018-03-30T05:27:34.400Z,1000
2018-03-30T05:28:34.141Z,1040
2018-03-30T05:29:34.097Z,1068
2018-03-30T05:30:34.330Z,1084
2018-03-30T05:31:33.785Z,1100
2018-03-30T05:32:34.006Z,1104
2018-03-30T05:33:33.984Z,1108
2018-03-30T05:34:34.011Z,1108
2018-03-30T05:35:33.924Z,1116
2018-03-30T05:36:34.146Z,1128
2018-03-30T05:37:33.872Z,1144
2018-03-30T05:38:34.084Z,1168
2018-03-30T05:39:34.056Z,1204
2018-03-30T05:40:34.046Z,1240
2018-03-30T05:41:34.002Z,1284
2018-03-30T05:42:33.729Z,1324
2018-03-30T05:43:33.701Z,1368
2018-03-30T05:44:33.921Z,1408
2018-03-30T05:45:33.641Z,1444
2018-03-30T05:46:33.361Z,1484
2018-03-30T05:47:33.583Z,1528
2018-03-30T05:48:33.808Z,1572
2018-03-30T05:49:33.033Z,1628
2018-03-30T05:50:33.768Z,1696
2018-03-30T05:51:33.475Z,1768
2018-03-30T05:52:33.449Z,1848
2018-03-30T05:53:33.168Z,1924
2018-03-30T05:54:33.644Z,1996
2018-03-30T05:55:33.362Z,2064
2018-03-30T05:56:33.586Z,2136
2018-03-30T05:57:33.560Z,2204
2018-03-30T05:58:33.590Z,2288
2018-03-30T05:59:33.253Z,2372
2018-03-30T06:00:33.478Z,2468
2018-03-30T06:01:33.197Z,2588
2018-03-30T06:02:33.177Z,2696
2018-03-30T06:03:33.146Z,2820
2018-03-30T06:04:33.117Z,2992
2018-03-30T06:05:33.330Z,3204
2018-03-30T06:06:33.318Z,3416
2018-03-30T06:07:32.780Z,3608
2018-03-30T06:08:33.257Z,3740
2018-03-30T06:09:32.972Z,3840
2018-03-30T06:10:32.952Z,3904
2018-03-30T06:11:33.175Z,3916
2018-03-30T06:12:32.643Z,3928
2018-03-30T06:13:32.623Z,3960
2018-03-30T06:14:32.834Z,3952
2018-03-30T06:15:32.807Z,3956
2018-03-30T06:16:32.781Z,4012
2018-03-30T06:17:32.758Z,4076
2018-03-30T06:18:32.231Z,4172
2018-03-30T06:19:32.701Z,4356
2018-03-30T06:20:32.671Z,4688
2018-03-30T06:21:32.396Z,5244
2018-03-30T06:22:32.867Z,6052
2018-03-30T06:23:32.842Z,7008
2018-03-30T06:24:32.573Z,7748
2018-03-30T06:25:32.787Z,8104
2018-03-30T06:26:32.511Z,8072
2018-03-30T06:27:32.231Z,7764
2018-03-30T06:28:32.451Z,7336
2018-03-30T06:29:32.540Z,6904
2018-03-30T06:30:32.395Z,6564
2018-03-30T06:31:32.381Z,6432
2018-03-30T06:32:32.593Z,6364
2018-03-30T06:33:32.565Z,6124
2018-03-30T06:34:32.574Z,5848
2018-03-30T06:35:32.512Z,5584
2018-03-30T06:36:32.236Z,5420
2018-03-30T06:37:32.462Z,5352
2018-03-30T06:38:32.685Z,5372
2018-03-30T06:39:32.162Z,5544
2018-03-30T06:40:32.381Z,5844
2018-03-30T06:41:32.362Z,6056
2018-03-30T06:42:32.080Z,6200
2018-03-30T06:43:32.094Z,6392
2018-03-30T06:44:32.276Z,6684
2018-03-30T06:45:32.246Z,7248
2018-03-30T06:46:31.722Z,8136
2018-03-30T06:47:32.191Z,9020
2018-03-30T06:48:32.177Z,9188
2018-03-30T06:49:32.141Z,8920
2018-03-30T06:50:32.118Z,8724
2018-03-30T06:51:32.104Z,8508
2018-03-30T06:52:32.081Z,8300
2018-03-30T06:53:32.038Z,8112
2018-03-30T06:54:32.008Z,8056
2018-03-30T06:55:31.981Z,8036
2018-03-30T06:56:31.955Z,7932
2018-03-30T06:57:31.683Z,7916
2018-03-30T06:58:31.906Z,7984
2018-03-30T06:59:31.639Z,7984
2018-03-30T07:00:31.852Z,8176
2018-03-30T07:01:31.578Z,8696
2018-03-30T07:02:31.557Z,9344
2018-03-30T07:03:31.782Z,10316
2018-03-30T07:04:31.254Z,11280
2018-03-30T07:05:31.476Z,12136
2018-03-30T07:06:31.706Z,12852
2018-03-30T07:07:31.671Z,13528
2018-03-30T07:08:31.651Z,14344
2018-03-30T07:09:30.877Z,15124
2018-03-30T07:10:31.353Z,15620
2018-03-30T07:11:31.570Z,15656
2018-03-30T07:12:31.550Z,15652
2018-03-30T07:13:31.029Z,15688
2018-03-30T07:14:31.001Z,15532
2018-03-30T07:15:31.486Z,15428
2018-03-30T07:16:31.454Z,15564
2018-03-30T07:17:31.184Z,15944
2018-03-30T07:18:30.911Z,16436
2018-03-30T07:19:30.880Z,16908
2018-03-30T07:20:31.101Z,17376
2018-03-30T07:21:31.829Z,17632
2018-03-30T07:22:32.366Z,17632
2018-03-30T07:23:31.277Z,17536
2018-03-30T07:24:31.014Z,17536
2018-03-30T07:25:30.988Z,17632
2018-03-30T07:26:30.718Z,17632
2018-03-30T07:27:30.938Z,17792
2018-03-30T07:28:31.170Z,18240
2018-03-30T07:29:30.641Z,18272
2018-03-30T07:30:30.629Z,17952
2018-03-30T07:31:31.103Z,17568
2018-03-30T07:32:31.078Z,17216
2018-03-30T07:33:30.553Z,16796
2018-03-30T07:34:30.777Z,16720
2018-03-30T07:35:31.014Z,16672
2018-03-30T07:36:30.978Z,16956
2018-03-30T07:37:30.961Z,17600
2018-03-30T07:38:30.695Z,17664
2018-03-30T07:39:30.699Z,17376
2018-03-30T07:40:30.647Z,17248
2018-03-30T07:41:30.625Z,16980
2018-03-30T07:42:30.598Z,17008
2018-03-30T07:43:30.823Z,17044
2018-03-30T07:44:30.563Z,16988
2018-03-30T07:45:30.534Z,17632
2018-03-30T07:46:30.523Z,17824
2018-03-30T07:47:30.743Z,17664
2018-03-30T07:48:30.723Z,17600
2018-03-30T07:49:30.450Z,17856
2018-03-30T07:50:30.255Z,18048
2018-03-30T07:51:30.657Z,18400
2018-03-30T07:52:30.639Z,19104
2018-03-30T07:53:30.617Z,19872
2018-03-30T07:54:30.593Z,20160
2018-03-30T07:55:30.317Z,20672
2018-03-30T07:56:30.547Z,20480
2018-03-30T07:57:30.532Z,20032
2018-03-30T07:58:30.508Z,19872
2018-03-30T07:59:30.475Z,19136
2018-03-30T08:00:30.460Z,18592
2018-03-30T08:01:30.197Z,17952
2018-03-30T08:02:30.420Z,17728
2018-03-30T08:03:30.407Z,17984
2018-03-30T08:04:29.877Z,18464
2018-03-30T08:05:30.113Z,18976
2018-03-30T08:06:30.086Z,19232
2018-03-30T08:07:30.314Z,18944
2018-03-30T08:08:30.325Z,18144
2018-03-30T08:09:30.032Z,17696
2018-03-30T08:10:30.265Z,16956
2018-03-30T08:11:30.237Z,16512
2018-03-30T08:12:30.213Z,16376
2018-03-30T08:13:30.224Z,16732
2018-03-30T08:14:30.190Z,17156
2018-03-30T08:15:29.656Z,17308
2018-03-30T08:16:29.887Z,18080
2018-03-30T08:17:29.859Z,17984
2018-03-30T08:18:30.098Z,18272
2018-03-30T08:19:29.824Z,18112
2018-03-30T08:20:30.051Z,17888
2018-03-30T08:21:29.795Z,17792
2018-03-30T08:22:30.075Z,17824
2018-03-30T08:23:29.733Z,17180
2018-03-30T08:24:30.082Z,16872
2018-03-30T08:25:29.949Z,16904
2018-03-30T08:26:29.929Z,17040
2018-03-30T08:27:29.907Z,17104
2018-03-30T08:28:29.632Z,17144
2018-03-30T08:29:29.368Z,17016
2018-03-30T08:30:29.846Z,17008
2018-03-30T08:31:29.823Z,16580
2018-03-30T08:32:29.307Z,15884
2018-03-30T08:33:29.786Z,15280
2018-03-30T08:34:29.512Z,14852
2018-03-30T08:35:29.748Z,14492
2018-03-30T08:36:29.726Z,14364
2018-03-30T08:37:29.791Z,14600
2018-03-30T08:38:29.689Z,14640
2018-03-30T08:39:29.420Z,14500
2018-03-30T08:40:29.389Z,14508
2018-03-30T08:41:29.622Z,14632
2018-03-30T08:42:29.604Z,14588
2018-03-30T08:43:29.119Z,14432
2018-03-30T08:44:29.558Z,14084
2018-03-30T08:45:29.540Z,13624
2018-03-30T08:46:29.515Z,13000
2018-03-30T08:47:29.505Z,12376
2018-03-30T08:48:29.479Z,11932
2018-03-30T08:49:29.293Z,11776
2018-03-30T08:50:28.937Z,11792
2018-03-30T08:51:29.167Z,11944
2018-03-30T08:52:28.898Z,12076
2018-03-30T08:53:29.409Z,12208
2018-03-30T08:54:29.106Z,12364
2018-03-30T08:55:29.099Z,12164
2018-03-30T08:56:29.062Z,11920
2018-03-30T08:57:29.298Z,11600
2018-03-30T08:58:28.774Z,11224
2018-03-30T08:59:28.502Z,10984
2018-03-30T09:00:28.992Z,10432
2018-03-30T09:01:28.711Z,10244
2018-03-30T09:02:29.190Z,10368
2018-03-30T09:03:29.160Z,10300
2018-03-30T09:04:28.894Z,10220
2018-03-30T09:05:28.877Z,10228
2018-03-30T09:06:29.102Z,10348
2018-03-30T09:07:29.080Z,10496
2018-03-30T09:08:28.812Z,10532
2018-03-30T09:09:28.785Z,10624
2018-03-30T09:10:28.764Z,10736
2018-03-30T09:11:28.984Z,10668
2018-03-30T09:12:28.724Z,10552
2018-03-30T09:13:28.709Z,10576
2018-03-30T09:14:28.430Z,10476
2018-03-30T09:15:28.901Z,10484
2018-03-30T09:16:28.632Z,10584
2018-03-30T09:17:28.892Z,10728
2018-03-30T09:18:28.645Z,10708
2018-03-30T09:19:28.319Z,10904
2018-03-30T09:20:28.883Z,11084
2018-03-30T09:21:28.280Z,11092
2018-03-30T09:22:28.753Z,10780
2018-03-30T09:23:28.730Z,10420
2018-03-30T09:24:28.465Z,10212
2018-03-30T09:25:28.434Z,10300
2018-03-30T09:26:28.416Z,10104
2018-03-30T09:27:28.403Z,9860
2018-03-30T09:28:28.630Z,9540
2018-03-30T09:29:28.354Z,9316
2018-03-30T09:30:28.321Z,9296
2018-03-30T09:31:28.058Z,9344
2018-03-30T09:32:28.214Z,9476
2018-03-30T09:33:28.270Z,9588
2018-03-30T09:34:28.485Z,9616
2018-03-30T09:35:28.470Z,9628
2018-03-30T09:36:28.477Z,9632
2018-03-30T09:37:28.423Z,9576
2018-03-30T09:38:28.183Z,9480
2018-03-30T09:39:27.961Z,9284
2018-03-30T09:40:28.355Z,9052
2018-03-30T09:41:28.332Z,9060
2018-03-30T09:42:28.317Z,9128
2018-03-30T09:43:28.047Z,9036
2018-03-30T09:44:28.274Z,8932
2018-03-30T09:45:27.991Z,8864
2018-03-30T09:46:28.225Z,8828
2018-03-30T09:47:28.205Z,8788
2018-03-30T09:48:27.933Z,8796
2018-03-30T09:49:28.164Z,8784
2018-03-30T09:50:28.137Z,8896
2018-03-30T09:51:28.119Z,8904
2018-03-30T09:52:28.095Z,8988
2018-03-30T09:53:28.136Z,8972
2018-03-30T09:54:27.816Z,9216
2018-03-30T09:55:28.022Z,9392
2018-03-30T09:56:28.019Z,9588
2018-03-30T09:57:27.737Z,9652
2018-03-30T09:58:27.966Z,9580
2018-03-30T09:59:27.981Z,9692
2018-03-30T10:00:27.666Z,9724
2018-03-30T10:01:27.645Z,9812
2018-03-30T10:02:27.878Z,9940
2018-03-30T10:03:28.148Z,10092
2018-03-30T10:04:27.430Z,10296
2018-03-30T10:05:27.800Z,10500
2018-03-30T10:06:27.535Z,10756
2018-03-30T10:07:27.766Z,11028
2018-03-30T10:08:27.773Z,11248
2018-03-30T10:09:27.469Z,11484
2018-03-30T10:10:27.449Z,11792
2018-03-30T10:11:27.424Z,12136
2018-03-30T10:12:27.165Z,12412
2018-03-30T10:13:27.631Z,12816
2018-03-30T10:14:27.611Z,13268
2018-03-30T10:15:27.591Z,13704
2018-03-30T10:16:27.315Z,14032
2018-03-30T10:17:27.555Z,14440
2018-03-30T10:18:27.420Z,14824
2018-03-30T10:19:27.009Z,15072
2018-03-30T10:20:27.489Z,15412
2018-03-30T10:21:27.458Z,15712
2018-03-30T10:22:27.197Z,16048
2018-03-30T10:23:27.424Z,16348
2018-03-30T10:24:26.897Z,16612
2018-03-30T10:25:27.118Z,16956
2018-03-30T10:26:27.358Z,17292
2018-03-30T10:27:26.582Z,17752
2018-03-30T10:28:27.066Z,18368
2018-03-30T10:29:27.288Z,18816
2018-03-30T10:30:27.443Z,19168
2018-03-30T10:31:26.997Z,19680
2018-03-30T10:32:26.975Z,20096
2018-03-30T10:33:27.209Z,20448
2018-03-30T10:34:26.938Z,20768
2018-03-30T10:35:27.171Z,20864
2018-03-30T10:36:26.896Z,21120
2018-03-30T10:37:26.878Z,21344
2018-03-30T10:38:26.855Z,21696
2018-03-30T10:39:26.585Z,22016
2018-03-30T10:40:27.077Z,22336
2018-03-30T10:41:27.042Z,22624
2018-03-30T10:42:27.032Z,22944
2018-03-30T10:43:27.008Z,23200
2018-03-30T10:44:26.981Z,23456
2018-03-30T10:45:26.965Z,23680
2018-03-30T10:46:26.706Z,23872
2018-03-30T10:47:26.937Z,23936
2018-03-30T10:48:26.914Z,24000
2018-03-30T10:49:26.888Z,24064
2018-03-30T10:50:26.872Z,24160
2018-03-30T10:51:26.849Z,24192
2018-03-30T10:52:26.581Z,24224
2018-03-30T10:53:26.561Z,24352
2018-03-30T10:54:26.800Z,24416
2018-03-30T10:55:26.529Z,24480
2018-03-30T10:56:26.766Z,24352
2018-03-30T10:57:26.838Z,24192
2018-03-30T10:58:26.721Z,24128
2018-03-30T10:59:26.712Z,24032
2018-03-30T11:00:26.549Z,23808
2018-03-30T11:01:26.410Z,23424
2018-03-30T11:02:26.399Z,22976
2018-03-30T11:03:26.629Z,22240
2018-03-30T11:04:26.364Z,21408
2018-03-30T11:05:26.411Z,20608
2018-03-30T11:06:26.092Z,19776
2018-03-30T11:07:26.061Z,18976
2018-03-30T11:08:26.539Z,18272
2018-03-30T11:09:26.526Z,17472
2018-03-30T11:10:26.258Z,16860
2018-03-30T11:11:26.243Z,16432
2018-03-30T11:12:26.205Z,16136
2018-03-30T11:13:26.218Z,15832
2018-03-30T11:14:26.180Z,15396
2018-03-30T11:15:26.413Z,14928
2018-03-30T11:16:26.149Z,14496
2018-03-30T11:17:26.136Z,14044
2018-03-30T11:18:26.110Z,13732
2018-03-30T11:19:26.345Z,13444
2018-03-30T11:20:26.323Z,13344
2018-03-30T11:21:26.314Z,13480
2018-03-30T11:22:26.043Z,13556
2018-03-30T11:23:26.024Z,13608
2018-03-30T11:24:26.268Z,13696
2018-03-30T11:25:26.239Z,13940
2018-03-30T11:26:25.718Z,14208
2018-03-30T11:27:26.200Z,14576
2018-03-30T11:28:26.200Z,14856
2018-03-30T11:29:26.172Z,14888
2018-03-30T11:30:26.150Z,14900
2018-03-30T11:31:25.632Z,14664
2018-03-30T11:32:26.108Z,14476
2018-03-30T11:33:26.100Z,14384
2018-03-30T11:34:25.825Z,14384
2018-03-30T11:35:26.064Z,14516
2018-03-30T11:36:25.790Z,14780
2018-03-30T11:37:25.523Z,15012
2018-03-30T11:38:26.043Z,15152
2018-03-30T11:39:25.996Z,15324
2018-03-30T11:40:25.967Z,15144
2018-03-30T11:41:25.458Z,15044
2018-03-30T11:42:25.470Z,15148
2018-03-30T11:43:26.591Z,15016
2018-03-30T11:44:25.891Z,14664
2018-03-30T11:45:25.375Z,14992
2018-03-30T11:46:25.608Z,15356
2018-03-30T11:47:25.842Z,15472
2018-03-30T11:48:25.569Z,15396
2018-03-30T11:49:25.586Z,15220
2018-03-30T11:50:25.618Z,14628
2018-03-30T11:51:25.513Z,14768
2018-03-30T11:52:25.747Z,14504
2018-03-30T11:53:25.729Z,14720
2018-03-30T11:54:25.718Z,14940
2018-03-30T11:55:25.835Z,15056
2018-03-30T11:56:25.422Z,14936
2018-03-30T11:57:25.401Z,15004
2018-03-30T11:58:25.638Z,15108
2018-03-30T11:59:25.386Z,15224
2018-03-30T12:00:25.344Z,15216
2018-03-30T12:01:25.577Z,14924
2018-03-30T12:02:25.555Z,14652
2018-03-30T12:03:25.290Z,14264
2018-03-30T12:04:25.278Z,13532
2018-03-30T12:05:25.502Z,13640
2018-03-30T12:06:24.984Z,13380
2018-03-30T12:07:24.972Z,13720
2018-03-30T12:08:25.443Z,14348
2018-03-30T12:09:25.430Z,14584
2018-03-30T12:10:24.906Z,14564
2018-03-30T12:11:25.393Z,13920
2018-03-30T12:12:25.126Z,13080
2018-03-30T12:13:25.104Z,13020
2018-03-30T12:14:25.093Z,13652
2018-03-30T12:15:25.071Z,14920
2018-03-30T12:16:25.296Z,16052
2018-03-30T12:17:25.092Z,16900
2018-03-30T12:18:25.009Z,17128
2018-03-30T12:19:25.334Z,17096
2018-03-30T12:20:25.222Z,15768
2018-03-30T12:21:25.215Z,14964
2018-03-30T12:22:25.186Z,15208
2018-03-30T12:23:24.920Z,15320
2018-03-30T12:24:24.902Z,15336
2018-03-30T12:25:25.664Z,15088
2018-03-30T12:26:24.866Z,14512
2018-03-30T12:27:25.094Z,14396
2018-03-30T12:28:25.082Z,14656
2018-03-30T12:29:24.809Z,14700
2018-03-30T12:30:24.543Z,14856
2018-03-30T12:31:24.775Z,14964
2018-03-30T12:32:24.753Z,15024
2018-03-30T12:33:24.983Z,14684
2018-03-30T12:34:24.978Z,14896
2018-03-30T12:35:24.706Z,15088
2018-03-30T12:36:24.967Z,16144
2018-03-30T12:37:24.913Z,16644
2018-03-30T12:38:24.639Z,17048
2018-03-30T12:39:24.887Z,18368
2018-03-30T12:40:24.853Z,19616
2018-03-30T12:41:24.846Z,19712
2018-03-30T12:42:24.575Z,19360
2018-03-30T12:43:24.553Z,19808
2018-03-30T12:44:24.784Z,20608
2018-03-30T12:45:24.864Z,21312
2018-03-30T12:46:24.823Z,21568
2018-03-30T12:47:24.731Z,21504
2018-03-30T12:48:24.726Z,21632
2018-03-30T12:49:24.706Z,21088
2018-03-30T12:50:24.697Z,21312
2018-03-30T12:51:24.169Z,21856
2018-03-30T12:52:24.396Z,23040
2018-03-30T12:53:24.642Z,23904
2018-03-30T12:54:24.620Z,24416
2018-03-30T12:55:24.338Z,23968
2018-03-30T12:56:24.591Z,24064
2018-03-30T12:57:24.310Z,24384
2018-03-30T12:58:24.301Z,24896
2018-03-30T12:59:24.276Z,25280
2018-03-30T13:00:24.524Z,25312
2018-03-30T13:01:24.253Z,25120
2018-03-30T13:02:23.983Z,24896
2018-03-30T13:03:24.210Z,24256
2018-03-30T13:04:23.945Z,23840
2018-03-30T13:05:24.185Z,23776
2018-03-30T13:06:24.244Z,24192
2018-03-30T13:07:24.588Z,24608
2018-03-30T13:08:24.461Z,25408
2018-03-30T13:09:24.121Z,25792
2018-03-30T13:10:24.074Z,25952
2018-03-30T13:11:24.524Z,26240
2018-03-30T13:12:24.462Z,26240
2018-03-30T13:13:24.413Z,26272
2018-03-30T13:14:24.238Z,26144
2018-03-30T13:15:24.382Z,26016
2018-03-30T13:16:24.006Z,25984
2018-03-30T13:17:24.088Z,26016
2018-03-30T13:18:23.731Z,26048
2018-03-30T13:19:23.725Z,26048
2018-03-30T13:20:24.153Z,25920
2018-03-30T13:21:24.174Z,25920
2018-03-30T13:22:24.126Z,25824
2018-03-30T13:23:24.108Z,25568
2018-03-30T13:24:23.844Z,25600
2018-03-30T13:25:24.097Z,25760
2018-03-30T13:26:24.062Z,25760
2018-03-30T13:27:24.051Z,25664
2018-03-30T13:28:23.781Z,25600
2018-03-30T13:29:24.014Z,25600
2018-03-30T13:30:23.995Z,25792
2018-03-30T13:31:23.484Z,26240
2018-03-30T13:32:23.478Z,26624
2018-03-30T13:33:23.946Z,27072
2018-03-30T13:34:23.685Z,27488
2018-03-30T13:35:23.922Z,27584
2018-03-30T13:36:23.651Z,27616
2018-03-30T13:37:23.891Z,27232